createdAt,value
2019-02-27T00:00:15.945Z,100205.05
2019-02-27T00:02:43.266Z,100198.48
2019-02-27T00:05:10.556Z,100199.48
2019-02-27T00:07:37.306Z,100202.61
2019-02-27T00:10:06.738Z,100197.18
2019-02-27T00:12:34.748Z,100199.69
2019-02-27T00:15:02.195Z,100197.94
2019-02-27T00:17:31.005Z,100191.20
2019-02-27T00:19:58.407Z,100192.91
2019-02-27T00:22:25.245Z,100185.87
2019-02-27T00:24:52.015Z,100184.65
2019-02-27T00:27:19.221Z,100181.38
2019-02-27T00:29:46.023Z,100178.20
2019-02-27T00:32:15.787Z,100176.16
2019-02-27T00:34:43.227Z,100179.22
2019-02-27T00:37:10.143Z,100179.45
2019-02-27T00:39:37.060Z,100182.43
2019-02-27T00:42:04.218Z,100180.71
2019-02-27T00:44:34.029Z,100170.59
2019-02-27T00:46:59.935Z,100178.83
2019-02-27T00:49:27.019Z,100177.88
2019-02-27T00:51:54.171Z,100185.75
2019-02-27T00:54:21.304Z,100179.44
2019-02-27T00:56:48.080Z,100174.48
2019-02-27T00:59:15.176Z,100171.83
2019-02-27T01:01:47.306Z,100167.42
2019-02-27T01:04:12.679Z,100169.14
2019-02-27T01:06:39.465Z,100175.44
2019-02-27T01:09:07.033Z,100168.41
2019-02-27T01:11:33.972Z,100168.66
2019-02-27T01:14:03.720Z,100165.31
2019-02-27T01:16:29.876Z,100160.95
2019-02-27T01:18:56.764Z,100158.25
2019-02-27T01:21:23.518Z,100157.53
2019-02-27T01:23:50.275Z,100160.18
2019-02-27T01:26:17.232Z,100156.54
2019-02-27T01:28:45.463Z,100152.31
2019-02-27T01:31:13.258Z,100156.25
2019-02-27T01:33:40.083Z,100154.00
2019-02-27T01:36:06.907Z,100147.95
2019-02-27T01:41:59.364Z,100137.31
2019-02-27T01:44:44.014Z,100138.02
2019-02-27T01:50:55.079Z,100121.38
2019-02-27T01:53:37.952Z,100119.09
2019-02-27T01:56:12.275Z,100108.35
2019-02-27T01:58:54.265Z,100110.62
2019-02-27T02:01:21.574Z,100102.59
2019-02-27T02:03:48.476Z,100101.97
2019-02-27T02:06:15.234Z,100098.28
2019-02-27T02:08:48.020Z,100104.55
2019-02-27T02:11:13.665Z,100097.41
2019-02-27T02:13:52.512Z,100094.94
2019-02-27T02:16:34.416Z,100088.03
2019-02-27T02:19:30.610Z,100088.45
2019-02-27T02:22:32.896Z,100077.45
2019-02-27T02:25:32.785Z,100078.44
2019-02-27T02:28:26.564Z,100080.42
2019-02-27T02:31:08.216Z,100071.24
2019-02-27T02:34:09.141Z,100073.53
2019-02-27T02:37:11.708Z,100075.64
2019-02-27T02:40:12.996Z,100067.80
2019-02-27T02:43:05.382Z,100064.23
2019-02-27T02:46:08.865Z,100057.16
2019-02-27T02:49:06.203Z,100050.47
2019-02-27T02:51:37.014Z,100062.41
2019-02-27T02:54:39.064Z,100059.89
2019-02-27T02:57:20.044Z,100055.28
2019-02-27T03:00:01.905Z,100051.76
2019-02-27T03:02:46.932Z,100050.30
2019-02-27T03:05:28.374Z,100043.20
2019-02-27T03:08:20.215Z,100052.45
2019-02-27T03:11:02.472Z,100042.62
2019-02-27T03:13:49.986Z,100035.02
2019-02-27T03:16:31.779Z,100035.23
2019-02-27T03:19:41.793Z,100035.77
2019-02-27T03:22:40.397Z,100038.22
2019-02-27T03:25:40.699Z,100032.63
2019-02-27T03:28:40.937Z,100036.06
2019-02-27T03:31:40.192Z,100034.03
2019-02-27T03:34:22.365Z,100036.47
2019-02-27T03:37:15.072Z,100040.34
2019-02-27T03:39:59.567Z,100046.99
2019-02-27T03:43:10.190Z,100040.98
2019-02-27T03:46:19.957Z,100042.74
2019-02-27T03:49:04.720Z,100040.61
2019-02-27T03:51:59.697Z,100039.89
2019-02-27T03:54:48.488Z,100033.80
2019-02-27T03:57:56.707Z,100042.45
2019-02-27T04:00:55.285Z,100036.87
2019-02-27T04:04:02.986Z,100035.02
2019-02-27T04:06:56.460Z,100034.80
2019-02-27T04:09:22.934Z,100039.12
2019-02-27T04:11:50.007Z,100033.30
2019-02-27T04:14:32.128Z,100034.47
2019-02-27T04:17:05.507Z,100029.02
2019-02-27T04:19:27.911Z,100032.17
2019-02-27T04:22:00.593Z,100027.37
2019-02-27T04:24:23.390Z,100025.06
2019-02-27T04:26:50.195Z,100027.67
2019-02-27T04:29:17.037Z,100027.72
2019-02-27T04:31:43.771Z,100031.23
2019-02-27T04:34:11.061Z,100030.44
2019-02-27T04:36:37.897Z,100037.33
2019-02-27T04:39:06.050Z,100031.57
2019-02-27T04:41:33.040Z,100032.29
2019-02-27T04:44:02.973Z,100027.13
2019-02-27T04:46:29.538Z,100029.73
2019-02-27T04:48:56.331Z,100029.47
2019-02-27T04:51:23.901Z,100026.84
2019-02-27T04:53:51.193Z,100023.59
2019-02-27T04:56:17.992Z,100024.94
2019-02-27T04:58:44.734Z,100017.63
2019-02-27T05:01:11.582Z,100020.35
2019-02-27T05:03:38.896Z,100026.02
2019-02-27T05:06:05.886Z,100024.92
2019-02-27T05:08:32.687Z,100018.50
2019-02-27T05:10:59.579Z,100018.28
2019-02-27T05:13:26.352Z,100016.11
2019-02-27T05:15:53.669Z,100021.56
2019-02-27T05:18:20.514Z,100022.07
2019-02-27T05:20:47.456Z,100023.84
2019-02-27T05:23:14.232Z,100021.53
2019-02-27T05:25:41.083Z,100017.17
2019-02-27T05:28:07.869Z,100008.28
2019-02-27T05:30:34.619Z,100014.20
2019-02-27T05:33:02.766Z,100020.47
2019-02-27T05:35:30.193Z,100019.02
2019-02-27T05:37:57.147Z,100020.30
2019-02-27T05:40:25.945Z,100019.84
2019-02-27T05:42:52.943Z,100013.85
2019-02-27T05:45:19.760Z,100014.68
2019-02-27T05:47:46.637Z,100021.25
2019-02-27T05:50:13.381Z,100019.56
2019-02-27T05:52:40.421Z,100018.06
2019-02-27T05:55:07.161Z,100015.89
2019-02-27T05:57:34.020Z,100015.75
2019-02-27T06:00:02.635Z,100010.45
2019-02-27T06:02:30.316Z,100006.78
2019-02-27T06:04:59.170Z,100013.04
2019-02-27T06:07:26.059Z,100006.76
2019-02-27T06:09:52.881Z,100001.77
2019-02-27T06:12:20.018Z,100005.80
2019-02-27T06:14:46.796Z,100004.16
2019-02-27T06:17:13.657Z,100002.68
2019-02-27T06:19:40.385Z,99998.99
2019-02-27T06:22:07.291Z,99997.77
2019-02-27T06:24:34.052Z,99998.95
2019-02-27T06:27:00.823Z,99999.98
2019-02-27T06:29:28.361Z,99998.11
2019-02-27T06:31:55.480Z,100005.82
2019-02-27T06:34:24.855Z,100001.43
2019-02-27T06:36:51.495Z,99993.83
2019-02-27T06:39:18.321Z,99995.55
2019-02-27T06:41:47.419Z,100000.22
2019-02-27T06:44:14.078Z,100002.61
2019-02-27T06:46:40.995Z,99998.60
2019-02-27T06:49:07.710Z,99996.16
2019-02-27T06:51:35.776Z,99996.45
2019-02-27T06:54:03.186Z,100001.53
2019-02-27T06:56:30.776Z,99996.08
2019-02-27T06:58:57.505Z,99998.69
2019-02-27T07:01:24.396Z,99994.66
2019-02-27T07:03:51.134Z,99992.48
2019-02-27T07:06:21.327Z,99996.06
2019-02-27T07:08:46.906Z,99998.69
2019-02-27T07:11:14.037Z,99999.49
2019-02-27T07:13:41.042Z,99994.56
2019-02-27T07:16:08.516Z,99989.86
2019-02-27T07:18:36.465Z,99989.59
2019-02-27T07:21:03.350Z,99993.23
2019-02-27T07:23:30.525Z,99992.56
2019-02-27T07:25:59.351Z,99985.84
2019-02-27T07:28:26.243Z,99975.69
2019-02-27T07:30:52.999Z,99982.96
2019-02-27T07:33:20.257Z,99989.22
2019-02-27T07:35:47.750Z,99977.98
2019-02-27T07:38:14.646Z,99979.05
2019-02-27T07:40:42.921Z,99977.48
2019-02-27T07:43:10.775Z,99981.05
2019-02-27T07:45:42.802Z,99978.36
2019-02-27T07:48:09.173Z,99969.84
2019-02-27T07:50:36.340Z,99968.94
2019-02-27T07:53:03.230Z,99965.02
2019-02-27T07:55:30.442Z,99968.99
2019-02-27T07:57:58.758Z,99964.38
2019-02-27T08:00:26.626Z,99963.33
2019-02-27T08:02:54.036Z,99962.09
2019-02-27T08:05:20.984Z,99962.61
2019-02-27T08:07:49.156Z,99964.75
2019-02-27T08:10:22.604Z,99968.59
2019-02-27T08:12:49.780Z,99960.73
2019-02-27T08:15:18.336Z,99956.86
2019-02-27T08:17:45.257Z,99962.31
2019-02-27T08:20:14.826Z,99960.72
2019-02-27T08:22:42.192Z,99962.42
2019-02-27T08:25:17.221Z,99962.73
2019-02-27T08:27:44.025Z,99964.70
2019-02-27T08:30:22.025Z,99970.59
2019-02-27T08:32:48.766Z,99968.61
2019-02-27T08:35:16.694Z,99962.69
2019-02-27T08:37:44.009Z,99964.38
2019-02-27T08:40:12.384Z,99951.20
2019-02-27T08:42:40.527Z,99948.66
2019-02-27T08:45:20.090Z,99944.01
2019-02-27T08:47:47.458Z,99944.89
2019-02-27T08:50:16.563Z,99942.95
2019-02-27T08:52:44.476Z,99937.69
2019-02-27T08:55:19.984Z,99928.10
2019-02-27T08:57:43.693Z,99924.98
2019-02-27T09:00:23.745Z,99925.00
2019-02-27T09:02:50.491Z,99923.97
2019-02-27T09:05:20.018Z,99920.84
2019-02-27T09:07:46.707Z,99913.88
2019-02-27T09:10:17.172Z,99915.52
2019-02-27T09:12:45.388Z,99924.21
2019-02-27T09:15:13.555Z,99924.24
2019-02-27T09:17:40.814Z,99918.53
2019-02-27T09:20:19.682Z,99919.08
2019-02-27T09:22:46.644Z,99915.52
2019-02-27T09:25:13.525Z,99917.89
2019-02-27T09:27:40.277Z,99917.41
2019-02-27T09:30:17.967Z,99908.02
2019-02-27T09:32:46.031Z,99905.90
2019-02-27T09:35:13.160Z,99903.45
2019-02-27T09:37:43.538Z,99900.50
2019-02-27T09:40:26.268Z,99900.88
2019-02-27T09:42:53.982Z,99904.13
2019-02-27T09:45:31.297Z,99895.37
2019-02-27T09:47:59.871Z,99896.38
2019-02-27T09:50:48.251Z,99884.57
2019-02-27T09:53:15.156Z,99884.39
2019-02-27T09:55:42.423Z,99885.16
2019-02-27T09:58:11.519Z,99885.02
2019-02-27T10:01:00.291Z,99878.83
2019-02-27T10:03:27.631Z,99880.60
2019-02-27T10:05:54.496Z,99876.05
2019-02-27T10:08:21.268Z,99874.85
2019-02-27T10:10:48.145Z,99878.87
2019-02-27T10:13:15.514Z,99876.50
2019-02-27T10:15:42.257Z,99871.49
2019-02-27T10:18:08.980Z,99864.75
2019-02-27T10:20:37.307Z,99863.73
2019-02-27T10:23:04.820Z,99862.44
2019-02-27T10:25:31.606Z,99857.09
2019-02-27T10:28:03.380Z,99850.52
2019-02-27T10:30:27.052Z,99842.35
2019-02-27T10:32:53.792Z,99835.27
2019-02-27T10:35:20.552Z,99837.38
2019-02-27T10:37:50.247Z,99828.35
2019-02-27T10:40:21.895Z,99820.27
2019-02-27T10:42:50.429Z,99816.28
2019-02-27T10:45:18.538Z,99816.90
2019-02-27T10:47:45.348Z,99816.18
2019-02-27T10:50:14.261Z,99807.48
2019-02-27T10:52:41.407Z,99813.45
2019-02-27T10:55:18.998Z,99804.98
2019-02-27T10:57:45.773Z,99796.43
2019-02-27T11:00:31.713Z,99794.34
2019-02-27T11:02:59.777Z,99790.88
2019-02-27T11:05:29.624Z,99782.63
2019-02-27T11:07:56.960Z,99779.58
2019-02-27T11:10:24.000Z,99782.52
2019-02-27T11:12:50.793Z,99781.54
2019-02-27T11:15:19.238Z,99770.27
2019-02-27T11:17:46.171Z,99770.76
2019-02-27T11:20:13.675Z,99769.95
2019-02-27T11:22:41.366Z,99765.97
2019-02-27T11:25:15.273Z,99763.63
2019-02-27T11:27:42.099Z,99759.16
2019-02-27T11:30:25.827Z,99751.88
2019-02-27T11:32:56.791Z,99746.89
2019-02-27T11:35:22.027Z,99742.08
2019-02-27T11:37:50.465Z,99740.32
2019-02-27T11:40:23.901Z,99739.06
2019-02-27T11:42:50.844Z,99726.87
2019-02-27T11:45:18.201Z,99731.08
2019-02-27T11:47:47.949Z,99721.66
2019-02-27T11:50:17.856Z,99717.19
2019-02-27T11:52:49.053Z,99714.44
2019-02-27T11:55:19.818Z,99711.18
2019-02-27T11:57:46.590Z,99710.71
2019-02-27T12:00:30.600Z,99699.52
2019-02-27T12:02:57.748Z,99698.06
2019-02-27T12:05:31.368Z,99699.78
2019-02-27T12:07:55.042Z,99695.84
2019-02-27T12:10:31.151Z,99699.45
2019-02-27T12:13:01.474Z,99700.20
2019-02-27T12:15:28.570Z,99700.05
2019-02-27T12:17:59.830Z,99696.42
2019-02-27T12:20:24.339Z,99689.77
2019-02-27T12:22:51.069Z,99689.42
2019-02-27T12:25:20.179Z,99686.44
2019-02-27T12:27:49.772Z,99682.52
2019-02-27T12:30:21.229Z,99677.06
2019-02-27T12:32:48.019Z,99679.95
2019-02-27T12:35:22.049Z,99669.33
2019-02-27T12:37:48.998Z,99667.27
2019-02-27T12:40:21.184Z,99655.38
2019-02-27T12:42:47.135Z,99654.89
2019-02-27T12:45:17.054Z,99655.12
2019-02-27T12:47:44.202Z,99652.16
2019-02-27T12:50:17.915Z,99648.97
2019-02-27T12:52:47.905Z,99647.61
2019-02-27T12:55:13.403Z,99646.42
2019-02-27T12:57:40.173Z,99640.13
2019-02-27T13:00:18.225Z,99637.56
2019-02-27T13:02:45.036Z,99628.78
2019-02-27T13:05:17.989Z,99632.59
2019-02-27T13:07:45.505Z,99621.81
2019-02-27T13:10:20.833Z,99617.30
2019-02-27T13:12:49.267Z,99615.66
2019-02-27T13:15:19.691Z,99607.45
2019-02-27T13:17:46.563Z,99609.94
2019-02-27T13:20:17.625Z,99601.22
2019-02-27T13:22:44.863Z,99600.26
2019-02-27T13:25:11.907Z,99590.97
2019-02-27T13:27:40.271Z,99590.91
2019-02-27T13:30:15.350Z,99589.72
2019-02-27T13:32:42.564Z,99584.73
2019-02-27T13:35:09.628Z,99578.07
2019-02-27T13:37:36.780Z,99570.22
2019-02-27T13:40:14.313Z,99571.33
2019-02-27T13:42:41.086Z,99572.01
2019-02-27T13:45:23.787Z,99571.04
2019-02-27T13:47:50.555Z,99563.39
2019-02-27T13:50:22.390Z,99557.73
2019-02-27T13:52:49.846Z,99551.16
2019-02-27T13:55:20.526Z,99550.10
2019-02-27T13:57:47.468Z,99549.70
2019-02-27T14:00:25.975Z,99540.95
2019-02-27T14:02:53.229Z,99539.98
2019-02-27T14:05:20.578Z,99542.62
2019-02-27T14:07:48.447Z,99538.91
2019-02-27T14:10:20.601Z,99533.84
2019-02-27T14:12:47.040Z,99530.24
2019-02-27T14:15:17.693Z,99523.52
2019-02-27T14:17:44.593Z,99531.52
2019-02-27T14:20:18.863Z,99525.98
2019-02-27T14:22:45.940Z,99529.05
2019-02-27T14:25:16.530Z,99526.54
2019-02-27T14:27:47.264Z,99522.08
2019-02-27T14:30:20.560Z,99517.47
2019-02-27T14:32:48.046Z,99520.03
2019-02-27T14:35:14.904Z,99510.85
2019-02-27T14:37:42.072Z,99511.45
2019-02-27T14:40:16.745Z,99504.35
2019-02-27T14:42:43.573Z,99500.72
2019-02-27T14:45:17.097Z,99504.03
2019-02-27T14:47:47.327Z,99505.93
2019-02-27T14:50:17.509Z,99507.66
2019-02-27T14:52:45.194Z,99510.20
2019-02-27T14:55:14.547Z,99510.05
2019-02-27T14:57:42.303Z,99500.42
2019-02-27T15:00:24.700Z,99503.63
2019-02-27T15:02:52.169Z,99499.48
2019-02-27T15:05:19.750Z,99498.09
2019-02-27T15:07:46.679Z,99499.00
2019-02-27T15:10:17.457Z,99493.70
2019-02-27T15:12:44.286Z,99494.25
2019-02-27T15:15:17.357Z,99491.89
2019-02-27T15:17:44.113Z,99490.16
2019-02-27T15:20:20.270Z,99483.02
2019-02-27T15:22:47.032Z,99482.52
2019-02-27T15:25:16.485Z,99475.06
2019-02-27T15:27:45.253Z,99473.34
2019-02-27T15:30:31.079Z,99474.42
2019-02-27T15:32:57.847Z,99471.56
2019-02-27T15:35:24.636Z,99467.73
2019-02-27T15:37:51.395Z,99467.47
2019-02-27T15:40:28.377Z,99454.14
2019-02-27T15:42:53.236Z,99450.34
2019-02-27T15:45:25.173Z,99446.42
2019-02-27T15:47:53.596Z,99442.64
2019-02-27T15:50:32.783Z,99439.31
2019-02-27T15:52:59.591Z,99440.47
2019-02-27T15:55:26.365Z,99436.06
2019-02-27T15:57:54.157Z,99430.90
2019-02-27T16:00:25.641Z,99426.45
2019-02-27T16:02:52.489Z,99427.41
2019-02-27T16:05:19.748Z,99422.23
2019-02-27T16:07:49.544Z,99421.76
2019-02-27T16:10:25.912Z,99426.00
2019-02-27T16:12:52.867Z,99426.68
2019-02-27T16:15:20.999Z,99424.13
2019-02-27T16:17:47.849Z,99419.40
2019-02-27T16:20:17.640Z,99419.11
2019-02-27T16:22:44.468Z,99417.52
2019-02-27T16:25:18.239Z,99415.73
2019-02-27T16:27:43.968Z,99412.11
2019-02-27T16:30:19.446Z,99409.62
2019-02-27T16:32:48.484Z,99407.13
2019-02-27T16:35:15.087Z,99405.58
2019-02-27T16:37:41.896Z,99401.59
2019-02-27T16:40:18.935Z,99405.68
2019-02-27T16:42:45.996Z,99402.11
2019-02-27T16:45:23.012Z,99401.63
2019-02-27T16:47:50.156Z,99401.06
2019-02-27T16:50:24.317Z,99398.25
2019-02-27T16:52:50.054Z,99394.36
2019-02-27T16:55:22.870Z,99400.22
2019-02-27T16:57:50.118Z,99397.98
2019-02-27T17:00:23.312Z,99394.15
2019-02-27T17:02:50.111Z,99393.58
2019-02-27T17:05:17.054Z,99389.75
2019-02-27T17:07:44.158Z,99393.01
2019-02-27T17:10:17.866Z,99397.05
2019-02-27T17:12:44.309Z,99396.83
2019-02-27T17:15:11.701Z,99398.82
2019-02-27T17:17:38.439Z,99395.35
2019-02-27T17:20:14.880Z,99396.63
2019-02-27T17:22:41.624Z,99401.11
2019-02-27T17:25:12.937Z,99399.12
2019-02-27T17:27:39.677Z,99395.27
2019-02-27T17:30:30.646Z,99393.63
2019-02-27T17:32:57.842Z,99397.78
2019-02-27T17:35:24.618Z,99394.44
2019-02-27T17:37:51.460Z,99391.91
2019-02-27T17:40:18.251Z,99393.56
2019-02-27T17:42:45.471Z,99395.66
2019-02-27T17:45:24.928Z,99401.41
2019-02-27T17:47:51.687Z,99404.35
2019-02-27T17:50:18.923Z,99397.86
2019-02-27T17:52:48.722Z,99401.88
2019-02-27T17:55:16.215Z,99395.46
2019-02-27T17:57:43.297Z,99400.27
2019-02-27T18:00:30.809Z,99399.45
2019-02-27T18:02:57.842Z,99398.84
2019-02-27T18:05:25.339Z,99390.77
2019-02-27T18:07:53.360Z,99386.94
2019-02-27T18:10:20.199Z,99381.88
2019-02-27T18:12:47.145Z,99386.13
2019-02-27T18:15:22.987Z,99382.73
2019-02-27T18:17:49.841Z,99384.37
2019-02-27T18:20:16.676Z,99388.02
2019-02-27T18:22:50.609Z,99388.59
2019-02-27T18:25:18.158Z,99386.21
2019-02-27T18:27:47.724Z,99382.30
2019-02-27T18:30:25.042Z,99381.23
2019-02-27T18:32:51.789Z,99377.23
2019-02-27T18:35:19.108Z,99373.09
2019-02-27T18:37:45.977Z,99373.24
2019-02-27T18:40:14.957Z,99375.00
2019-02-27T18:42:42.226Z,99372.66
2019-02-27T18:45:22.551Z,99378.31
2019-02-27T18:47:49.294Z,99379.41
2019-02-27T18:50:16.704Z,99383.55
2019-02-27T18:52:43.461Z,99381.93
2019-02-27T18:55:15.331Z,99379.21
2019-02-27T18:57:47.115Z,99371.71
2019-02-27T19:00:36.192Z,99373.19
2019-02-27T19:06:19.495Z,99370.39
2019-02-27T19:09:07.239Z,99367.77
2019-02-27T19:11:47.329Z,99362.27
2019-02-27T19:14:39.528Z,99356.99
2019-02-27T19:17:06.749Z,99359.33
2019-02-27T19:19:41.511Z,99361.58
2019-02-27T19:22:16.149Z,99363.08
2019-02-27T19:24:43.059Z,99359.89
2019-02-27T19:27:10.126Z,99362.30
2019-02-27T19:29:41.327Z,99352.24
2019-02-27T19:32:10.231Z,99350.97
2019-02-27T19:34:36.991Z,99349.81
2019-02-27T19:37:05.231Z,99346.37
2019-02-27T19:39:33.955Z,99336.59
2019-02-27T19:42:07.194Z,99328.96
2019-02-27T19:44:47.660Z,99331.89
2019-02-27T19:47:20.610Z,99327.56
2019-02-27T19:49:47.911Z,99329.48
2019-02-27T19:52:26.869Z,99328.44
2019-02-27T19:54:56.702Z,99326.52
2019-02-27T19:57:42.329Z,99324.17
2019-02-27T20:00:21.420Z,99326.16
2019-02-27T20:02:49.017Z,99328.61
2019-02-27T20:05:21.297Z,99325.66
2019-02-27T20:07:50.455Z,99328.14
2019-02-27T20:10:17.589Z,99322.22
2019-02-27T20:12:47.368Z,99330.37
2019-02-27T20:15:19.615Z,99328.25
2019-02-27T20:17:47.555Z,99320.98
2019-02-27T20:20:18.224Z,99327.50
2019-02-27T20:22:45.612Z,99334.28
2019-02-27T20:25:17.967Z,99328.02
2019-02-27T20:27:45.104Z,99329.92
2019-02-27T20:30:16.514Z,99324.80
2019-02-27T20:32:45.732Z,99318.90
2019-02-27T20:35:13.205Z,99323.81
2019-02-27T20:37:41.390Z,99321.16
2019-02-27T20:40:11.787Z,99316.84
2019-02-27T20:42:38.751Z,99309.80
2019-02-27T20:45:13.181Z,99300.89
2019-02-27T20:47:40.552Z,99298.17
2019-02-27T20:50:12.403Z,99294.39
2019-02-27T20:52:39.187Z,99297.36
2019-02-27T20:55:06.138Z,99291.41
2019-02-27T20:57:33.545Z,99294.94
2019-02-27T21:00:02.646Z,99285.13
2019-02-27T21:02:29.140Z,99279.15
2019-02-27T21:04:56.260Z,99278.36
2019-02-27T21:07:26.069Z,99281.89
2019-02-27T21:09:54.412Z,99282.73
2019-02-27T21:12:21.227Z,99289.78
2019-02-27T21:14:48.213Z,99284.67
2019-02-27T21:17:16.528Z,99275.75
2019-02-27T21:19:43.976Z,99278.17
2019-02-27T21:22:10.718Z,99272.52
2019-02-27T21:24:40.559Z,99278.22
2019-02-27T21:27:06.403Z,99271.16
2019-02-27T21:29:33.256Z,99278.18
2019-02-27T21:32:03.014Z,99269.28
2019-02-27T21:34:30.077Z,99267.42
2019-02-27T21:36:56.817Z,99263.61
2019-02-27T21:39:25.176Z,99263.34
2019-02-27T21:41:53.099Z,99259.56
2019-02-27T21:44:25.536Z,99265.24
2019-02-27T21:46:49.173Z,99257.14
2019-02-27T21:49:16.990Z,99256.59
2019-02-27T21:51:47.747Z,99250.91
2019-02-27T21:54:13.618Z,99251.98
2019-02-27T21:59:07.851Z,99252.00
2019-02-27T22:01:36.954Z,99257.66
2019-02-27T22:04:03.829Z,99252.80
2019-02-27T22:06:30.641Z,99256.03
2019-02-27T22:09:19.738Z,99257.38
2019-02-27T22:11:47.947Z,99256.84
2019-02-27T22:14:16.725Z,99252.78
2019-02-27T22:16:45.951Z,99244.98
2019-02-27T22:19:12.718Z,99253.62
2019-02-27T22:21:39.663Z,99247.39
2019-02-27T22:24:06.462Z,99245.46
2019-02-27T22:26:34.167Z,99241.67
2019-02-27T22:29:02.187Z,99238.69
2019-02-27T22:31:29.023Z,99242.52
2019-02-27T22:33:57.010Z,99243.61
2019-02-27T22:36:23.820Z,99236.86
2019-02-27T22:38:50.620Z,99234.10
2019-02-27T22:41:17.390Z,99225.16
2019-02-27T22:43:45.583Z,99227.09
2019-02-27T22:46:13.614Z,99221.17
2019-02-27T22:48:41.674Z,99227.95
2019-02-27T22:51:08.872Z,99217.61
2019-02-27T22:53:35.643Z,99222.77
2019-02-27T22:56:03.053Z,99215.77
2019-02-27T22:58:30.143Z,99220.06
2019-02-27T23:01:06.935Z,99219.84
2019-02-27T23:03:44.364Z,99213.63
2019-02-27T23:06:12.278Z,99203.58
2019-02-27T23:08:40.250Z,99207.87
2019-02-27T23:11:07.247Z,99208.66
2019-02-27T23:13:34.347Z,99208.08
2019-02-27T23:16:01.152Z,99201.07
2019-02-27T23:18:29.591Z,99203.13
2019-02-27T23:20:58.363Z,99202.06
2019-02-27T23:23:25.032Z,99208.22
2019-02-27T23:25:52.079Z,99203.91
2019-02-27T23:28:19.516Z,99201.76
2019-02-27T23:30:47.318Z,99198.22
2019-02-27T23:33:15.210Z,99186.56
2019-02-27T23:35:42.115Z,99182.50
2019-02-27T23:38:08.849Z,99182.20
2019-02-27T23:40:35.581Z,99177.05
2019-02-27T23:43:03.390Z,99180.38
2019-02-27T23:45:30.605Z,99177.75
2019-02-27T23:47:59.249Z,99175.56
2019-02-27T23:50:26.437Z,99177.19
2019-02-27T23:52:53.415Z,99181.25
2019-02-27T23:55:20.799Z,99182.12
2019-02-27T23:57:47.555Z,99184.56
